SBTT/TBT METAR and TAF weather

Enter ICAO airport designator
Station Type Date Time Source
SBTT METAR 2021/01/16 00:00 UTC NOAA

SBTT 160000Z 18002KT CAVOK 27/24 Q1007


Station Type Date Time Source
SBTT Decoded METAR 2021/01/16 00:00 UTC NOAA

Tabatinga, Brazil (SBTT) 03-40S 069-40W
Jan 15, 2021 - 07:00 PM EST / 2021.01.16 0000 UTC
Wind: from the S (180 degrees) at 2 MPH (2 KT):0
Visibility: greater than 7 mile(s):0
Temperature: 80 F (27 C)
Dew Point: 75 F (24 C)
Relative Humidity: 83%
Pressure (altimeter): 29.74 in. Hg (1007 hPa)
ob: SBTT 160000Z 18002KT CAVOK 27/24 Q1007
cycle: 0

Station Type Date Time Source
SBTT TAF 2021/01/16 00:00 UTC NOAA

TAF SBTT 152100Z 1600/1624 10007KT 9999 FEW017 TN25/1612Z TX30/1617Z PROB40 1602/1606 5000 TSRA BKN015 FEW025CB
BECMG 1611/1613 23007KT 8000 BKN010
BECMG 1615/1617 35010KT 7000 BKN017 FEW030TCU PROB40 1618/1622 31012KT 5000 TSRA BKN015 FEW030CB
BECMG 1622/1624 10007KT 9999 FEW017
RMK PHN

Example: see airport list